sensor_id;sensor_type;location;lat;lon;timestamp;P1;durP1;ratioP1;P2;durP2;ratioP2
4650;SDS011;2338;49.602;8.722;2023-03-03T00:02:08;30.23;;;17.48;;
4650;SDS011;2338;49.602;8.722;2023-03-03T00:04:53;23.17;;;16.13;;
4650;SDS011;2338;49.602;8.722;2023-03-03T00:07:39;28.13;;;16.35;;
4650;SDS011;2338;49.602;8.722;2023-03-03T00:10:27;23.27;;;16.75;;
4650;SDS011;2338;49.602;8.722;2023-03-03T00:13:14;21.73;;;14.93;;
4650;SDS011;2338;49.602;8.722;2023-03-03T00:16:09;25.98;;;16.95;;
4650;SDS011;2338;49.602;8.722;2023-03-03T00:18:58;22.48;;;15.48;;
4650;SDS011;2338;49.602;8.722;2023-03-03T00:21:45;22.63;;;14.48;;
4650;SDS011;2338;49.602;8.722;2023-03-03T00:24:34;22.90;;;15.77;;
4650;SDS011;2338;49.602;8.722;2023-03-03T00:27:24;26.73;;;15.98;;
4650;SDS011;2338;49.602;8.722;2023-03-03T00:30:16;23.63;;;15.70;;
4650;SDS011;2338;49.602;8.722;2023-03-03T00:33:11;23.45;;;15.52;;
4650;SDS011;2338;49.602;8.722;2023-03-03T00:36:20;23.08;;;13.80;;
4650;SDS011;2338;49.602;8.722;2023-03-03T00:39:20;24.25;;;14.43;;
4650;SDS011;2338;49.602;8.722;2023-03-03T00:42:11;23.73;;;15.48;;
4650;SDS011;2338;49.602;8.722;2023-03-03T00:44:58;24.10;;;14.98;;
4650;SDS011;2338;49.602;8.722;2023-03-03T00:47:44;24.95;;;15.05;;
4650;SDS011;2338;49.602;8.722;2023-03-03T00:50:32;23.67;;;15.10;;
4650;SDS011;2338;49.602;8.722;2023-03-03T00:53:19;22.95;;;14.68;;
4650;SDS011;2338;49.602;8.722;2023-03-03T00:56:06;27.35;;;14.52;;
4650;SDS011;2338;49.602;8.722;2023-03-03T00:58:51;25.42;;;14.82;;
4650;SDS011;2338;49.602;8.722;2023-03-03T01:01:37;19.80;;;14.52;;
4650;SDS011;2338;49.602;8.722;2023-03-03T01:04:22;21.42;;;14.57;;
4650;SDS011;2338;49.602;8.722;2023-03-03T01:07:09;22.48;;;13.95;;
4650;SDS011;2338;49.602;8.722;2023-03-03T01:09:55;29.02;;;15.25;;
4650;SDS011;2338;49.602;8.722;2023-03-03T01:12:40;23.85;;;15.48;;
4650;SDS011;2338;49.602;8.722;2023-03-03T01:15:26;22.85;;;15.15;;
4650;SDS011;2338;49.602;8.722;2023-03-03T01:18:12;21.15;;;14.30;;
4650;SDS011;2338;49.602;8.722;2023-03-03T01:20:58;21.60;;;14.05;;
4650;SDS011;2338;49.602;8.722;2023-03-03T01:23:46;20.65;;;15.00;;
4650;SDS011;2338;49.602;8.722;2023-03-03T01:26:32;20.33;;;14.52;;
4650;SDS011;2338;49.602;8.722;2023-03-03T01:29:18;23.42;;;16.73;;
4650;SDS011;2338;49.602;8.722;2023-03-03T01:32:03;24.73;;;16.60;;
4650;SDS011;2338;49.602;8.722;2023-03-03T01:34:49;26.65;;;15.95;;
4650;SDS011;2338;49.602;8.722;2023-03-03T01:37:35;24.65;;;14.95;;
4650;SDS011;2338;49.602;8.722;2023-03-03T01:40:23;23.15;;;15.82;;
4650;SDS011;2338;49.602;8.722;2023-03-03T01:43:11;25.70;;;17.10;;
4650;SDS011;2338;49.602;8.722;2023-03-03T01:49:12;25.42;;;16.25;;
4650;SDS011;2338;49.602;8.722;2023-03-03T01:52:00;23.00;;;16.48;;
4650;SDS011;2338;49.602;8.722;2023-03-03T01:54:49;23.45;;;15.70;;
4650;SDS011;2338;49.602;8.722;2023-03-03T01:57:40;23.75;;;16.48;;
4650;SDS011;2338;49.602;8.722;2023-03-03T02:00:31;22.52;;;16.30;;
4650;SDS011;2338;49.602;8.722;2023-03-03T02:03:18;22.73;;;16.08;;
4650;SDS011;2338;49.602;8.722;2023-03-03T02:06:07;24.77;;;16.30;;
4650;SDS011;2338;49.602;8.722;2023-03-03T02:08:56;23.30;;;15.38;;
4650;SDS011;2338;49.602;8.722;2023-03-03T02:11:46;25.23;;;16.58;;
4650;SDS011;2338;49.602;8.722;2023-03-03T02:14:37;27.73;;;17.63;;
4650;SDS011;2338;49.602;8.722;2023-03-03T02:17:23;29.27;;;16.48;;
4650;SDS011;2338;49.602;8.722;2023-03-03T02:20:10;23.48;;;16.67;;
4650;SDS011;2338;49.602;8.722;2023-03-03T02:23:02;28.40;;;15.75;;
4650;SDS011;2338;49.602;8.722;2023-03-03T02:26:09;22.38;;;15.90;;
4650;SDS011;2338;49.602;8.722;2023-03-03T02:28:57;25.05;;;16.40;;
4650;SDS011;2338;49.602;8.722;2023-03-03T02:31:42;22.38;;;15.32;;
4650;SDS011;2338;49.602;8.722;2023-03-03T02:34:28;24.23;;;15.93;;
4650;SDS011;2338;49.602;8.722;2023-03-03T02:37:14;23.30;;;15.70;;
4650;SDS011;2338;49.602;8.722;2023-03-03T02:40:00;32.35;;;16.05;;
4650;SDS011;2338;49.602;8.722;2023-03-03T02:42:47;24.90;;;16.92;;
4650;SDS011;2338;49.602;8.722;2023-03-03T02:45:41;23.67;;;15.25;;
4650;SDS011;2338;49.602;8.722;2023-03-03T02:48:27;21.40;;;15.40;;
4650;SDS011;2338;49.602;8.722;2023-03-03T02:51:12;21.75;;;15.07;;
4650;SDS011;2338;49.602;8.722;2023-03-03T02:53:58;20.75;;;15.65;;
4650;SDS011;2338;49.602;8.722;2023-03-03T02:56:44;24.35;;;16.95;;
4650;SDS011;2338;49.602;8.722;2023-03-03T02:59:31;22.25;;;14.60;;
4650;SDS011;2338;49.602;8.722;2023-03-03T03:02:17;25.65;;;14.82;;
4650;SDS011;2338;49.602;8.722;2023-03-03T03:05:03;21.80;;;15.30;;
4650;SDS011;2338;49.602;8.722;2023-03-03T03:07:49;21.95;;;15.52;;
4650;SDS011;2338;49.602;8.722;2023-03-03T03:10:35;22.17;;;15.88;;
4650;SDS011;2338;49.602;8.722;2023-03-03T03:13:21;23.42;;;16.20;;
4650;SDS011;2338;49.602;8.722;2023-03-03T03:16:08;23.77;;;14.88;;
4650;SDS011;2338;49.602;8.722;2023-03-03T03:18:54;18.60;;;13.15;;
4650;SDS011;2338;49.602;8.722;2023-03-03T03:21:39;22.27;;;15.65;;
4650;SDS011;2338;49.602;8.722;2023-03-03T03:24:25;26.15;;;16.13;;
4650;SDS011;2338;49.602;8.722;2023-03-03T03:27:11;22.95;;;15.93;;
4650;SDS011;2338;49.602;8.722;2023-03-03T03:29:56;24.88;;;15.85;;
4650;SDS011;2338;49.602;8.722;2023-03-03T03:32:43;29.58;;;17.23;;
4650;SDS011;2338;49.602;8.722;2023-03-03T03:35:29;22.23;;;14.35;;
4650;SDS011;2338;49.602;8.722;2023-03-03T03:38:15;26.48;;;16.20;;
4650;SDS011;2338;49.602;8.722;2023-03-03T03:41:01;24.63;;;15.43;;
4650;SDS011;2338;49.602;8.722;2023-03-03T03:43:47;26.02;;;15.65;;
4650;SDS011;2338;49.602;8.722;2023-03-03T03:46:32;25.40;;;16.27;;
4650;SDS011;2338;49.602;8.722;2023-03-03T03:49:19;19.85;;;15.55;;
4650;SDS011;2338;49.602;8.722;2023-03-03T03:52:05;19.85;;;14.43;;
4650;SDS011;2338;49.602;8.722;2023-03-03T03:54:50;22.80;;;16.20;;
4650;SDS011;2338;49.602;8.722;2023-03-03T03:57:36;18.40;;;14.95;;
4650;SDS011;2338;49.602;8.722;2023-03-03T04:00:21;25.02;;;15.13;;
4650;SDS011;2338;49.602;8.722;2023-03-03T04:03:07;24.38;;;15.93;;
4650;SDS011;2338;49.602;8.722;2023-03-03T04:05:55;22.08;;;15.65;;
4650;SDS011;2338;49.602;8.722;2023-03-03T04:08:40;24.00;;;14.82;;
4650;SDS011;2338;49.602;8.722;2023-03-03T04:11:26;22.33;;;15.63;;
4650;SDS011;2338;49.602;8.722;2023-03-03T04:14:12;27.60;;;16.42;;
4650;SDS011;2338;49.602;8.722;2023-03-03T04:16:57;23.65;;;15.70;;
4650;SDS011;2338;49.602;8.722;2023-03-03T04:19:43;24.60;;;15.27;;
4650;SDS011;2338;49.602;8.722;2023-03-03T04:22:31;23.30;;;15.70;;
4650;SDS011;2338;49.602;8.722;2023-03-03T04:25:18;22.35;;;13.98;;
4650;SDS011;2338;49.602;8.722;2023-03-03T04:28:04;23.92;;;15.00;;
4650;SDS011;2338;49.602;8.722;2023-03-03T04:30:51;24.20;;;15.27;;
4650;SDS011;2338;49.602;8.722;2023-03-03T04:33:37;26.27;;;16.30;;
4650;SDS011;2338;49.602;8.722;2023-03-03T04:36:22;24.55;;;16.52;;
4650;SDS011;2338;49.602;8.722;2023-03-03T04:39:09;19.63;;;14.40;;
4650;SDS011;2338;49.602;8.722;2023-03-03T04:41:55;21.92;;;15.52;;
4650;SDS011;2338;49.602;8.722;2023-03-03T04:44:41;22.30;;;16.85;;
4650;SDS011;2338;49.602;8.722;2023-03-03T04:47:27;23.55;;;15.13;;
4650;SDS011;2338;49.602;8.722;2023-03-03T04:50:13;26.15;;;16.73;;
4650;SDS011;2338;49.602;8.722;2023-03-03T04:52:58;27.85;;;16.83;;
4650;SDS011;2338;49.602;8.722;2023-03-03T04:55:46;24.27;;;16.83;;
4650;SDS011;2338;49.602;8.722;2023-03-03T04:58:34;23.60;;;14.95;;
4650;SDS011;2338;49.602;8.722;2023-03-03T05:01:19;22.38;;;15.90;;
4650;SDS011;2338;49.602;8.722;2023-03-03T05:04:05;23.70;;;15.35;;
4650;SDS011;2338;49.602;8.722;2023-03-03T05:06:51;23.13;;;16.23;;
4650;SDS011;2338;49.602;8.722;2023-03-03T05:09:37;22.73;;;15.70;;
4650;SDS011;2338;49.602;8.722;2023-03-03T05:12:24;27.10;;;15.48;;
4650;SDS011;2338;49.602;8.722;2023-03-03T05:15:11;28.13;;;15.18;;
4650;SDS011;2338;49.602;8.722;2023-03-03T05:17:56;23.17;;;16.35;;
4650;SDS011;2338;49.602;8.722;2023-03-03T05:20:42;24.92;;;16.55;;
4650;SDS011;2338;49.602;8.722;2023-03-03T05:23:28;21.88;;;15.75;;
4650;SDS011;2338;49.602;8.722;2023-03-03T05:26:14;24.15;;;14.85;;
4650;SDS011;2338;49.602;8.722;2023-03-03T05:29:01;23.75;;;15.88;;
4650;SDS011;2338;49.602;8.722;2023-03-03T05:31:46;25.98;;;14.95;;
4650;SDS011;2338;49.602;8.722;2023-03-03T05:34:32;24.08;;;15.77;;
4650;SDS011;2338;49.602;8.722;2023-03-03T05:37:18;26.42;;;16.60;;
4650;SDS011;2338;49.602;8.722;2023-03-03T05:40:04;24.05;;;16.20;;
4650;SDS011;2338;49.602;8.722;2023-03-03T05:42:50;30.27;;;17.85;;
4650;SDS011;2338;49.602;8.722;2023-03-03T05:45:38;22.92;;;16.23;;
4650;SDS011;2338;49.602;8.722;2023-03-03T05:48:23;22.42;;;15.60;;
4650;SDS011;2338;49.602;8.722;2023-03-03T05:51:09;35.88;;;18.77;;
4650;SDS011;2338;49.602;8.722;2023-03-03T05:53:55;27.08;;;14.95;;
4650;SDS011;2338;49.602;8.722;2023-03-03T05:56:41;25.90;;;17.60;;
4650;SDS011;2338;49.602;8.722;2023-03-03T05:59:26;22.45;;;15.50;;
4650;SDS011;2338;49.602;8.722;2023-03-03T06:02:13;26.48;;;15.90;;
4650;SDS011;2338;49.602;8.722;2023-03-03T06:04:59;22.40;;;17.00;;
4650;SDS011;2338;49.602;8.722;2023-03-03T06:07:44;29.02;;;18.25;;
4650;SDS011;2338;49.602;8.722;2023-03-03T06:10:30;28.50;;;16.30;;
4650;SDS011;2338;49.602;8.722;2023-03-03T06:13:16;28.25;;;18.60;;
4650;SDS011;2338;49.602;8.722;2023-03-03T06:16:01;24.95;;;16.10;;
4650;SDS011;2338;49.602;8.722;2023-03-03T06:18:49;24.48;;;16.42;;
4650;SDS011;2338;49.602;8.722;2023-03-03T06:21:35;24.33;;;15.23;;
4650;SDS011;2338;49.602;8.722;2023-03-03T06:24:20;24.48;;;16.13;;
4650;SDS011;2338;49.602;8.722;2023-03-03T06:27:08;30.95;;;16.77;;
4650;SDS011;2338;49.602;8.722;2023-03-03T06:29:54;27.10;;;16.20;;
4650;SDS011;2338;49.602;8.722;2023-03-03T06:32:39;32.20;;;17.30;;
4650;SDS011;2338;49.602;8.722;2023-03-03T06:35:26;30.52;;;18.05;;
4650;SDS011;2338;49.602;8.722;2023-03-03T06:38:12;22.70;;;16.45;;
4650;SDS011;2338;49.602;8.722;2023-03-03T06:40:57;27.90;;;16.60;;
4650;SDS011;2338;49.602;8.722;2023-03-03T06:43:44;25.98;;;15.98;;
4650;SDS011;2338;49.602;8.722;2023-03-03T06:46:30;23.70;;;15.70;;
4650;SDS011;2338;49.602;8.722;2023-03-03T06:49:16;30.73;;;18.13;;
4650;SDS011;2338;49.602;8.722;2023-03-03T06:52:09;29.15;;;19.00;;
4650;SDS011;2338;49.602;8.722;2023-03-03T06:54:58;27.65;;;17.27;;
4650;SDS011;2338;49.602;8.722;2023-03-03T06:57:45;25.13;;;16.90;;
4650;SDS011;2338;49.602;8.722;2023-03-03T07:00:31;24.67;;;17.33;;
4650;SDS011;2338;49.602;8.722;2023-03-03T07:03:17;26.00;;;18.20;;
4650;SDS011;2338;49.602;8.722;2023-03-03T07:06:07;30.40;;;17.77;;
4650;SDS011;2338;49.602;8.722;2023-03-03T07:09:19;28.05;;;19.80;;
4650;SDS011;2338;49.602;8.722;2023-03-03T07:12:09;28.63;;;19.08;;
4650;SDS011;2338;49.602;8.722;2023-03-03T07:15:00;35.88;;;19.25;;
4650;SDS011;2338;49.602;8.722;2023-03-03T07:17:58;29.63;;;20.25;;
4650;SDS011;2338;49.602;8.722;2023-03-03T07:20:45;27.90;;;19.02;;
4650;SDS011;2338;49.602;8.722;2023-03-03T07:23:31;36.28;;;20.50;;
4650;SDS011;2338;49.602;8.722;2023-03-03T07:26:27;32.22;;;20.15;;
4650;SDS011;2338;49.602;8.722;2023-03-03T07:29:18;31.85;;;19.20;;
4650;SDS011;2338;49.602;8.722;2023-03-03T07:32:14;34.40;;;21.30;;
4650;SDS011;2338;49.602;8.722;2023-03-03T07:35:07;32.10;;;20.73;;
4650;SDS011;2338;49.602;8.722;2023-03-03T07:38:19;32.97;;;21.10;;
4650;SDS011;2338;49.602;8.722;2023-03-03T07:41:09;34.92;;;22.30;;
4650;SDS011;2338;49.602;8.722;2023-03-03T07:44:01;39.28;;;23.80;;
4650;SDS011;2338;49.602;8.722;2023-03-03T07:46:49;38.00;;;22.95;;
4650;SDS011;2338;49.602;8.722;2023-03-03T07:49:36;33.88;;;23.00;;
4650;SDS011;2338;49.602;8.722;2023-03-03T07:52:26;46.00;;;23.80;;
4650;SDS011;2338;49.602;8.722;2023-03-03T07:55:20;33.85;;;22.52;;
4650;SDS011;2338;49.602;8.722;2023-03-03T07:58:16;36.83;;;23.30;;
4650;SDS011;2338;49.602;8.722;2023-03-03T08:03:59;40.13;;;26.30;;
4650;SDS011;2338;49.602;8.722;2023-03-03T08:06:48;38.85;;;26.00;;
4650;SDS011;2338;49.602;8.722;2023-03-03T08:09:41;39.28;;;25.23;;
4650;SDS011;2338;49.602;8.722;2023-03-03T08:12:35;42.00;;;25.33;;
4650;SDS011;2338;49.602;8.722;2023-03-03T08:15:27;45.50;;;24.58;;
4650;SDS011;2338;49.602;8.722;2023-03-03T08:18:18;39.17;;;25.23;;
4650;SDS011;2338;49.602;8.722;2023-03-03T08:21:09;42.28;;;24.73;;
4650;SDS011;2338;49.602;8.722;2023-03-03T08:23:56;39.53;;;23.48;;
4650;SDS011;2338;49.602;8.722;2023-03-03T08:26:42;42.30;;;25.95;;
4650;SDS011;2338;49.602;8.722;2023-03-03T08:29:28;40.58;;;24.33;;
4650;SDS011;2338;49.602;8.722;2023-03-03T08:32:13;37.03;;;24.73;;
4650;SDS011;2338;49.602;8.722;2023-03-03T08:34:59;38.50;;;25.13;;
4650;SDS011;2338;49.602;8.722;2023-03-03T08:37:46;35.70;;;23.85;;
4650;SDS011;2338;49.602;8.722;2023-03-03T08:40:31;37.67;;;24.23;;
4650;SDS011;2338;49.602;8.722;2023-03-03T08:43:17;37.27;;;25.30;;
4650;SDS011;2338;49.602;8.722;2023-03-03T08:46:05;38.93;;;26.00;;
4650;SDS011;2338;49.602;8.722;2023-03-03T08:48:52;41.90;;;27.17;;
4650;SDS011;2338;49.602;8.722;2023-03-03T08:51:38;47.30;;;27.40;;
4650;SDS011;2338;49.602;8.722;2023-03-03T08:54:25;40.40;;;27.23;;
4650;SDS011;2338;49.602;8.722;2023-03-03T08:57:11;42.50;;;27.30;;
4650;SDS011;2338;49.602;8.722;2023-03-03T08:59:56;47.37;;;27.97;;
4650;SDS011;2338;49.602;8.722;2023-03-03T09:02:42;43.80;;;28.03;;
4650;SDS011;2338;49.602;8.722;2023-03-03T09:05:28;47.37;;;28.77;;
4650;SDS011;2338;49.602;8.722;2023-03-03T09:08:14;48.60;;;28.98;;
4650;SDS011;2338;49.602;8.722;2023-03-03T09:11:01;44.83;;;29.37;;
4650;SDS011;2338;49.602;8.722;2023-03-03T09:13:46;59.33;;;34.27;;
4650;SDS011;2338;49.602;8.722;2023-03-03T09:16:36;50.00;;;31.03;;
4650;SDS011;2338;49.602;8.722;2023-03-03T09:19:24;48.70;;;32.10;;
4650;SDS011;2338;49.602;8.722;2023-03-03T09:22:16;48.20;;;30.07;;
4650;SDS011;2338;49.602;8.722;2023-03-03T09:25:05;54.03;;;30.30;;
4650;SDS011;2338;49.602;8.722;2023-03-03T09:28:09;53.90;;;32.77;;
4650;SDS011;2338;49.602;8.722;2023-03-03T09:31:15;44.83;;;29.77;;
4650;SDS011;2338;49.602;8.722;2023-03-03T09:34:11;54.33;;;33.37;;
4650;SDS011;2338;49.602;8.722;2023-03-03T09:37:11;52.13;;;29.30;;
4650;SDS011;2338;49.602;8.722;2023-03-03T09:40:10;44.83;;;29.50;;
4650;SDS011;2338;49.602;8.722;2023-03-03T09:43:16;47.50;;;28.70;;
4650;SDS011;2338;49.602;8.722;2023-03-03T09:46:11;49.13;;;29.07;;
4650;SDS011;2338;49.602;8.722;2023-03-03T09:49:08;46.50;;;28.35;;
4650;SDS011;2338;49.602;8.722;2023-03-03T09:52:13;43.40;;;29.00;;
4650;SDS011;2338;49.602;8.722;2023-03-03T09:55:11;45.03;;;29.13;;
4650;SDS011;2338;49.602;8.722;2023-03-03T09:58:14;42.63;;;27.97;;
4650;SDS011;2338;49.602;8.722;2023-03-03T10:01:31;42.90;;;27.33;;
4650;SDS011;2338;49.602;8.722;2023-03-03T10:07:58;53.60;;;27.37;;
4650;SDS011;2338;49.602;8.722;2023-03-03T10:11:03;39.53;;;27.07;;
4650;SDS011;2338;49.602;8.722;2023-03-03T10:14:04;47.13;;;29.00;;
4650;SDS011;2338;49.602;8.722;2023-03-03T10:17:16;45.03;;;29.00;;
4650;SDS011;2338;49.602;8.722;2023-03-03T10:20:22;50.97;;;31.10;;
4650;SDS011;2338;49.602;8.722;2023-03-03T10:23:23;51.13;;;31.40;;
4650;SDS011;2338;49.602;8.722;2023-03-03T10:26:26;53.90;;;31.87;;
4650;SDS011;2338;49.602;8.722;2023-03-03T10:29:38;49.20;;;30.33;;
4650;SDS011;2338;49.602;8.722;2023-03-03T10:32:36;46.63;;;30.10;;
4650;SDS011;2338;49.602;8.722;2023-03-03T10:39:15;51.40;;;32.43;;
4650;SDS011;2338;49.602;8.722;2023-03-03T10:42:15;51.17;;;31.90;;
4650;SDS011;2338;49.602;8.722;2023-03-03T10:48:37;44.63;;;29.00;;
4650;SDS011;2338;49.602;8.722;2023-03-03T10:51:38;50.07;;;31.30;;
4650;SDS011;2338;49.602;8.722;2023-03-03T10:54:37;43.13;;;28.03;;
4650;SDS011;2338;49.602;8.722;2023-03-03T10:57:35;45.53;;;29.73;;
4650;SDS011;2338;49.602;8.722;2023-03-03T11:00:30;42.37;;;27.83;;
4650;SDS011;2338;49.602;8.722;2023-03-03T11:06:50;48.50;;;28.67;;
4650;SDS011;2338;49.602;8.722;2023-03-03T11:09:54;46.80;;;27.50;;
4650;SDS011;2338;49.602;8.722;2023-03-03T11:13:01;40.10;;;26.47;;
4650;SDS011;2338;49.602;8.722;2023-03-03T11:16:05;44.93;;;27.33;;
4650;SDS011;2338;49.602;8.722;2023-03-03T11:19:04;49.90;;;26.60;;
4650;SDS011;2338;49.602;8.722;2023-03-03T11:22:00;38.43;;;24.43;;
4650;SDS011;2338;49.602;8.722;2023-03-03T11:24:58;43.33;;;27.80;;
4650;SDS011;2338;49.602;8.722;2023-03-03T11:27:59;44.77;;;28.93;;
4650;SDS011;2338;49.602;8.722;2023-03-03T11:31:20;46.60;;;30.03;;
4650;SDS011;2338;49.602;8.722;2023-03-03T11:34:16;45.10;;;26.93;;
4650;SDS011;2338;49.602;8.722;2023-03-03T11:37:15;43.73;;;27.43;;
4650;SDS011;2338;49.602;8.722;2023-03-03T11:40:09;38.93;;;25.80;;
4650;SDS011;2338;49.602;8.722;2023-03-03T11:43:00;45.67;;;27.40;;
4650;SDS011;2338;49.602;8.722;2023-03-03T11:45:51;47.37;;;27.47;;
4650;SDS011;2338;49.602;8.722;2023-03-03T11:48:41;44.80;;;28.20;;
4650;SDS011;2338;49.602;8.722;2023-03-03T11:51:41;43.37;;;27.27;;
4650;SDS011;2338;49.602;8.722;2023-03-03T11:54:35;46.30;;;28.53;;
4650;SDS011;2338;49.602;8.722;2023-03-03T11:57:28;41.07;;;26.20;;
4650;SDS011;2338;49.602;8.722;2023-03-03T12:00:23;51.10;;;26.93;;
4650;SDS011;2338;49.602;8.722;2023-03-03T12:03:14;43.30;;;26.90;;
4650;SDS011;2338;49.602;8.722;2023-03-03T12:06:08;41.47;;;27.43;;
4650;SDS011;2338;49.602;8.722;2023-03-03T12:12:17;42.37;;;27.57;;
4650;SDS011;2338;49.602;8.722;2023-03-03T12:15:09;52.70;;;27.80;;
4650;SDS011;2338;49.602;8.722;2023-03-03T12:18:16;40.07;;;25.83;;
4650;SDS011;2338;49.602;8.722;2023-03-03T12:21:14;42.90;;;27.50;;
4650;SDS011;2338;49.602;8.722;2023-03-03T12:24:22;39.27;;;24.57;;
4650;SDS011;2338;49.602;8.722;2023-03-03T12:27:21;41.50;;;26.90;;
4650;SDS011;2338;49.602;8.722;2023-03-03T12:30:15;44.33;;;26.57;;
4650;SDS011;2338;49.602;8.722;2023-03-03T12:33:08;45.37;;;28.17;;
4650;SDS011;2338;49.602;8.722;2023-03-03T12:36:03;45.97;;;27.20;;
4650;SDS011;2338;49.602;8.722;2023-03-03T12:38:58;39.43;;;27.30;;
4650;SDS011;2338;49.602;8.722;2023-03-03T12:41:49;41.33;;;26.43;;
4650;SDS011;2338;49.602;8.722;2023-03-03T12:44:46;40.23;;;26.60;;
4650;SDS011;2338;49.602;8.722;2023-03-03T12:47:39;47.03;;;27.30;;
4650;SDS011;2338;49.602;8.722;2023-03-03T12:50:33;55.00;;;27.20;;
4650;SDS011;2338;49.602;8.722;2023-03-03T12:53:29;43.53;;;26.87;;
4650;SDS011;2338;49.602;8.722;2023-03-03T12:56:25;45.07;;;25.13;;
4650;SDS011;2338;49.602;8.722;2023-03-03T12:59:19;42.07;;;25.60;;
4650;SDS011;2338;49.602;8.722;2023-03-03T13:02:24;39.33;;;25.07;;
4650;SDS011;2338;49.602;8.722;2023-03-03T13:05:21;42.47;;;24.60;;
4650;SDS011;2338;49.602;8.722;2023-03-03T13:08:20;36.83;;;24.87;;
4650;SDS011;2338;49.602;8.722;2023-03-03T13:11:22;39.07;;;25.87;;
4650;SDS011;2338;49.602;8.722;2023-03-03T13:14:31;43.83;;;25.90;;
4650;SDS011;2338;49.602;8.722;2023-03-03T13:17:26;39.47;;;23.60;;
4650;SDS011;2338;49.602;8.722;2023-03-03T13:20:16;35.97;;;22.80;;
4650;SDS011;2338;49.602;8.722;2023-03-03T13:23:09;37.27;;;23.07;;
4650;SDS011;2338;49.602;8.722;2023-03-03T13:26:03;37.33;;;23.77;;
4650;SDS011;2338;49.602;8.722;2023-03-03T13:28:57;37.90;;;24.00;;
4650;SDS011;2338;49.602;8.722;2023-03-03T13:31:48;36.83;;;25.43;;
4650;SDS011;2338;49.602;8.722;2023-03-03T13:34:38;37.17;;;23.57;;
4650;SDS011;2338;49.602;8.722;2023-03-03T13:37:34;40.70;;;23.20;;
4650;SDS011;2338;49.602;8.722;2023-03-03T13:40:38;35.13;;;23.97;;
4650;SDS011;2338;49.602;8.722;2023-03-03T13:43:28;38.13;;;24.03;;
4650;SDS011;2338;49.602;8.722;2023-03-03T13:46:20;38.40;;;23.63;;
4650;SDS011;2338;49.602;8.722;2023-03-03T13:49:24;34.50;;;22.70;;
4650;SDS011;2338;49.602;8.722;2023-03-03T13:52:20;34.97;;;23.27;;
4650;SDS011;2338;49.602;8.722;2023-03-03T13:55:13;31.80;;;22.53;;
4650;SDS011;2338;49.602;8.722;2023-03-03T13:58:07;35.97;;;22.70;;
4650;SDS011;2338;49.602;8.722;2023-03-03T14:01:00;42.23;;;23.73;;
4650;SDS011;2338;49.602;8.722;2023-03-03T14:03:56;40.60;;;22.50;;
4650;SDS011;2338;49.602;8.722;2023-03-03T14:06:46;29.53;;;20.47;;
4650;SDS011;2338;49.602;8.722;2023-03-03T14:09:43;32.57;;;22.10;;
4650;SDS011;2338;49.602;8.722;2023-03-03T14:12:38;32.90;;;21.30;;
4650;SDS011;2338;49.602;8.722;2023-03-03T14:15:28;33.37;;;22.60;;
4650;SDS011;2338;49.602;8.722;2023-03-03T14:18:20;38.13;;;24.00;;
4650;SDS011;2338;49.602;8.722;2023-03-03T14:21:11;31.07;;;22.60;;
4650;SDS011;2338;49.602;8.722;2023-03-03T14:24:03;34.90;;;23.60;;
4650;SDS011;2338;49.602;8.722;2023-03-03T14:26:57;37.67;;;23.00;;
4650;SDS011;2338;49.602;8.722;2023-03-03T14:29:44;32.80;;;21.30;;
4650;SDS011;2338;49.602;8.722;2023-03-03T14:32:29;35.00;;;23.20;;
4650;SDS011;2338;49.602;8.722;2023-03-03T14:35:17;35.20;;;21.90;;
4650;SDS011;2338;49.602;8.722;2023-03-03T14:38:05;35.97;;;23.47;;
4650;SDS011;2338;49.602;8.722;2023-03-03T14:41:03;38.03;;;22.70;;
4650;SDS011;2338;49.602;8.722;2023-03-03T14:43:57;35.13;;;22.87;;
4650;SDS011;2338;49.602;8.722;2023-03-03T14:46:44;34.93;;;22.03;;
4650;SDS011;2338;49.602;8.722;2023-03-03T14:49:31;35.60;;;21.60;;
4650;SDS011;2338;49.602;8.722;2023-03-03T14:52:21;32.80;;;21.93;;
4650;SDS011;2338;49.602;8.722;2023-03-03T14:55:30;36.70;;;22.60;;
4650;SDS011;2338;49.602;8.722;2023-03-03T14:58:23;34.63;;;22.73;;
4650;SDS011;2338;49.602;8.722;2023-03-03T15:01:20;35.80;;;22.83;;
4650;SDS011;2338;49.602;8.722;2023-03-03T15:04:09;33.33;;;21.17;;
4650;SDS011;2338;49.602;8.722;2023-03-03T15:07:26;35.20;;;21.37;;
4650;SDS011;2338;49.602;8.722;2023-03-03T15:10:26;34.97;;;19.83;;
4650;SDS011;2338;49.602;8.722;2023-03-03T15:13:24;32.00;;;19.47;;
4650;SDS011;2338;49.602;8.722;2023-03-03T15:16:20;36.10;;;23.40;;
4650;SDS011;2338;49.602;8.722;2023-03-03T15:19:17;29.70;;;20.73;;
4650;SDS011;2338;49.602;8.722;2023-03-03T15:22:22;33.50;;;20.40;;
4650;SDS011;2338;49.602;8.722;2023-03-03T15:25:31;30.00;;;20.53;;
4650;SDS011;2338;49.602;8.722;2023-03-03T15:28:25;29.00;;;19.37;;
4650;SDS011;2338;49.602;8.722;2023-03-03T15:31:26;32.30;;;20.77;;
4650;SDS011;2338;49.602;8.722;2023-03-03T15:34:23;33.27;;;20.97;;
4650;SDS011;2338;49.602;8.722;2023-03-03T15:37:23;29.40;;;19.77;;
4650;SDS011;2338;49.602;8.722;2023-03-03T15:40:19;31.50;;;21.07;;
4650;SDS011;2338;49.602;8.722;2023-03-03T15:43:12;32.67;;;19.57;;
4650;SDS011;2338;49.602;8.722;2023-03-03T15:46:05;27.50;;;20.00;;
4650;SDS011;2338;49.602;8.722;2023-03-03T15:49:08;33.90;;;19.63;;
4650;SDS011;2338;49.602;8.722;2023-03-03T15:52:04;29.60;;;18.50;;
4650;SDS011;2338;49.602;8.722;2023-03-03T15:55:13;34.57;;;20.70;;
4650;SDS011;2338;49.602;8.722;2023-03-03T15:58:35;31.80;;;20.00;;
4650;SDS011;2338;49.602;8.722;2023-03-03T16:01:39;30.17;;;18.90;;
4650;SDS011;2338;49.602;8.722;2023-03-03T16:04:33;31.47;;;18.73;;
4650;SDS011;2338;49.602;8.722;2023-03-03T16:07:32;30.17;;;18.77;;
4650;SDS011;2338;49.602;8.722;2023-03-03T16:10:28;25.07;;;17.30;;
4650;SDS011;2338;49.602;8.722;2023-03-03T16:13:22;28.30;;;16.73;;
4650;SDS011;2338;49.602;8.722;2023-03-03T16:16:24;30.53;;;17.93;;
4650;SDS011;2338;49.602;8.722;2023-03-03T16:19:23;25.67;;;17.50;;
4650;SDS011;2338;49.602;8.722;2023-03-03T16:22:27;29.87;;;16.03;;
4650;SDS011;2338;49.602;8.722;2023-03-03T16:25:29;26.97;;;17.17;;
4650;SDS011;2338;49.602;8.722;2023-03-03T16:28:24;23.13;;;15.70;;
4650;SDS011;2338;49.602;8.722;2023-03-03T16:31:18;28.20;;;16.47;;
4650;SDS011;2338;49.602;8.722;2023-03-03T16:34:10;32.33;;;16.10;;
4650;SDS011;2338;49.602;8.722;2023-03-03T16:37:02;26.23;;;15.83;;
4650;SDS011;2338;49.602;8.722;2023-03-03T16:39:55;25.07;;;16.20;;
4650;SDS011;2338;49.602;8.722;2023-03-03T16:42:48;25.17;;;14.47;;
4650;SDS011;2338;49.602;8.722;2023-03-03T16:45:41;24.90;;;14.60;;
4650;SDS011;2338;49.602;8.722;2023-03-03T16:48:30;25.40;;;15.97;;
4650;SDS011;2338;49.602;8.722;2023-03-03T16:51:24;28.23;;;15.23;;
4650;SDS011;2338;49.602;8.722;2023-03-03T16:54:24;25.43;;;14.80;;
4650;SDS011;2338;49.602;8.722;2023-03-03T16:57:19;23.73;;;14.90;;
4650;SDS011;2338;49.602;8.722;2023-03-03T17:00:13;25.90;;;14.93;;
4650;SDS011;2338;49.602;8.722;2023-03-03T17:06:20;27.10;;;15.30;;
4650;SDS011;2338;49.602;8.722;2023-03-03T17:09:20;21.43;;;13.70;;
4650;SDS011;2338;49.602;8.722;2023-03-03T17:12:27;26.33;;;15.20;;
4650;SDS011;2338;49.602;8.722;2023-03-03T17:15:29;24.30;;;15.60;;
4650;SDS011;2338;49.602;8.722;2023-03-03T17:18:26;27.73;;;15.27;;
4650;SDS011;2338;49.602;8.722;2023-03-03T17:21:23;25.43;;;14.97;;
4650;SDS011;2338;49.602;8.722;2023-03-03T17:24:16;23.60;;;14.97;;
4650;SDS011;2338;49.602;8.722;2023-03-03T17:27:10;25.57;;;15.23;;
4650;SDS011;2338;49.602;8.722;2023-03-03T17:30:08;22.50;;;13.93;;
4650;SDS011;2338;49.602;8.722;2023-03-03T17:33:06;27.90;;;15.57;;
4650;SDS011;2338;49.602;8.722;2023-03-03T17:36:07;24.27;;;14.20;;
4650;SDS011;2338;49.602;8.722;2023-03-03T17:39:04;27.60;;;15.70;;
4650;SDS011;2338;49.602;8.722;2023-03-03T17:42:00;21.20;;;13.57;;
4650;SDS011;2338;49.602;8.722;2023-03-03T17:44:53;23.20;;;14.90;;